sensor_id;sensor_type;location;lat;lon;timestamp;P1;durP1;ratioP1;P2;durP2;ratioP2
70457;SDS011;57919;56.194;95.716;2024-03-02T00:02:21;17.13;;;6.40;;
70457;SDS011;57919;56.194;95.716;2024-03-02T00:12:23;33.87;;;8.73;;
70457;SDS011;57919;56.194;95.716;2024-03-02T00:22:25;55.17;;;17.20;;
70457;SDS011;57919;56.194;95.716;2024-03-02T00:32:26;29.40;;;9.37;;
70457;SDS011;57919;56.194;95.716;2024-03-02T00:42:29;22.83;;;7.80;;
70457;SDS011;57919;56.194;95.716;2024-03-02T00:52:33;20.50;;;8.30;;
70457;SDS011;57919;56.194;95.716;2024-03-02T01:02:35;36.80;;;13.90;;
70457;SDS011;57919;56.194;95.716;2024-03-02T01:12:38;33.20;;;10.33;;
70457;SDS011;57919;56.194;95.716;2024-03-02T01:22:40;28.23;;;9.53;;
70457;SDS011;57919;56.194;95.716;2024-03-02T01:32:42;34.33;;;12.15;;
70457;SDS011;57919;56.194;95.716;2024-03-02T01:42:44;28.07;;;10.70;;
70457;SDS011;57919;56.194;95.716;2024-03-02T01:52:46;35.80;;;13.97;;
70457;SDS011;57919;56.194;95.716;2024-03-02T02:02:48;50.53;;;17.92;;
70457;SDS011;57919;56.194;95.716;2024-03-02T02:12:50;45.40;;;15.57;;
70457;SDS011;57919;56.194;95.716;2024-03-02T02:22:55;21.93;;;10.10;;
70457;SDS011;57919;56.194;95.716;2024-03-02T02:33:09;40.45;;;13.60;;
70457;SDS011;57919;56.194;95.716;2024-03-02T02:43:10;41.17;;;15.65;;
70457;SDS011;57919;56.194;95.716;2024-03-02T02:53:13;25.07;;;11.67;;
70457;SDS011;57919;56.194;95.716;2024-03-02T03:03:15;21.17;;;7.93;;
70457;SDS011;57919;56.194;95.716;2024-03-02T03:13:17;214.27;;;70.10;;
70457;SDS011;57919;56.194;95.716;2024-03-02T03:23:18;42.70;;;13.10;;
70457;SDS011;57919;56.194;95.716;2024-03-02T03:33:22;17.20;;;5.17;;
70457;SDS011;57919;56.194;95.716;2024-03-02T03:43:23;21.83;;;6.20;;
70457;SDS011;57919;56.194;95.716;2024-03-02T03:53:25;20.47;;;7.53;;
70457;SDS011;57919;56.194;95.716;2024-03-02T04:03:27;18.37;;;5.20;;
70457;SDS011;57919;56.194;95.716;2024-03-02T04:13:29;16.60;;;5.63;;
70457;SDS011;57919;56.194;95.716;2024-03-02T04:23:31;10.97;;;4.53;;
70457;SDS011;57919;56.194;95.716;2024-03-02T04:33:33;15.20;;;3.90;;
70457;SDS011;57919;56.194;95.716;2024-03-02T04:43:35;25.80;;;6.73;;
70457;SDS011;57919;56.194;95.716;2024-03-02T04:53:40;21.80;;;7.60;;
70457;SDS011;57919;56.194;95.716;2024-03-02T05:03:42;12.70;;;7.00;;
70457;SDS011;57919;56.194;95.716;2024-03-02T05:13:45;26.67;;;10.00;;
70457;SDS011;57919;56.194;95.716;2024-03-02T05:23:46;45.33;;;23.13;;
70457;SDS011;57919;56.194;95.716;2024-03-02T05:33:48;12.03;;;4.63;;
70457;SDS011;57919;56.194;95.716;2024-03-02T05:43:50;10.77;;;4.70;;
70457;SDS011;57919;56.194;95.716;2024-03-02T05:53:52;11.75;;;4.30;;
70457;SDS011;57919;56.194;95.716;2024-03-02T06:03:55;12.30;;;4.10;;
70457;SDS011;57919;56.194;95.716;2024-03-02T06:13:57;22.40;;;7.57;;
70457;SDS011;57919;56.194;95.716;2024-03-02T06:23:59;60.20;;;28.00;;
70457;SDS011;57919;56.194;95.716;2024-03-02T06:34:02;13.93;;;6.25;;
70457;SDS011;57919;56.194;95.716;2024-03-02T06:44:05;10.07;;;3.97;;
70457;SDS011;57919;56.194;95.716;2024-03-02T06:54:07;9.47;;;3.27;;
70457;SDS011;57919;56.194;95.716;2024-03-02T07:04:09;22.70;;;6.43;;
70457;SDS011;57919;56.194;95.716;2024-03-02T07:14:12;15.63;;;4.97;;
70457;SDS011;57919;56.194;95.716;2024-03-02T07:24:14;8.63;;;3.30;;
70457;SDS011;57919;56.194;95.716;2024-03-02T07:34:17;11.02;;;3.55;;
70457;SDS011;57919;56.194;95.716;2024-03-02T07:44:19;13.37;;;4.40;;
70457;SDS011;57919;56.194;95.716;2024-03-02T07:54:21;12.00;;;4.17;;
70457;SDS011;57919;56.194;95.716;2024-03-02T08:04:23;25.73;;;9.50;;
70457;SDS011;57919;56.194;95.716;2024-03-02T08:14:26;17.80;;;4.13;;
70457;SDS011;57919;56.194;95.716;2024-03-02T08:24:28;11.97;;;4.40;;
70457;SDS011;57919;56.194;95.716;2024-03-02T08:34:30;13.13;;;4.70;;
70457;SDS011;57919;56.194;95.716;2024-03-02T08:44:32;23.98;;;11.20;;
70457;SDS011;57919;56.194;95.716;2024-03-02T08:54:35;17.20;;;5.63;;
70457;SDS011;57919;56.194;95.716;2024-03-02T09:04:36;46.70;;;16.67;;
70457;SDS011;57919;56.194;95.716;2024-03-02T09:14:40;46.45;;;12.27;;
70457;SDS011;57919;56.194;95.716;2024-03-02T09:24:42;24.98;;;8.43;;
70457;SDS011;57919;56.194;95.716;2024-03-02T09:34:44;18.50;;;7.17;;
70457;SDS011;57919;56.194;95.716;2024-03-02T09:44:47;45.93;;;14.90;;
70457;SDS011;57919;56.194;95.716;2024-03-02T09:54:49;52.05;;;19.88;;
70457;SDS011;57919;56.194;95.716;2024-03-02T10:04:51;67.57;;;10.03;;
70457;SDS011;57919;56.194;95.716;2024-03-02T10:15:02;35.47;;;17.37;;
70457;SDS011;57919;56.194;95.716;2024-03-02T10:25:06;18.55;;;7.65;;
70457;SDS011;57919;56.194;95.716;2024-03-02T10:35:08;49.37;;;21.30;;
70457;SDS011;57919;56.194;95.716;2024-03-02T10:45:12;38.27;;;14.97;;
70457;SDS011;57919;56.194;95.716;2024-03-02T10:55:17;42.03;;;15.65;;
70457;SDS011;57919;56.194;95.716;2024-03-02T11:05:29;64.40;;;28.52;;
70457;SDS011;57919;56.194;95.716;2024-03-02T11:15:35;33.67;;;15.00;;
70457;SDS011;57919;56.194;95.716;2024-03-02T11:25:38;33.23;;;16.70;;
70457;SDS011;57919;56.194;95.716;2024-03-02T11:35:41;32.17;;;14.68;;
70457;SDS011;57919;56.194;95.716;2024-03-02T11:45:47;36.57;;;12.63;;
70457;SDS011;57919;56.194;95.716;2024-03-02T11:55:49;74.77;;;26.57;;
70457;SDS011;57919;56.194;95.716;2024-03-02T12:05:54;121.82;;;47.30;;
70457;SDS011;57919;56.194;95.716;2024-03-02T12:15:57;178.43;;;72.37;;
70457;SDS011;57919;56.194;95.716;2024-03-02T12:25:59;156.27;;;68.03;;
70457;SDS011;57919;56.194;95.716;2024-03-02T12:36:01;148.73;;;58.65;;
70457;SDS011;57919;56.194;95.716;2024-03-02T12:46:04;109.53;;;42.10;;
70457;SDS011;57919;56.194;95.716;2024-03-02T12:56:07;71.20;;;24.80;;
70457;SDS011;57919;56.194;95.716;2024-03-02T13:06:09;53.20;;;23.50;;
70457;SDS011;57919;56.194;95.716;2024-03-02T13:16:12;63.92;;;23.02;;
70457;SDS011;57919;56.194;95.716;2024-03-02T13:26:14;81.13;;;28.10;;
70457;SDS011;57919;56.194;95.716;2024-03-02T13:36:16;63.97;;;24.47;;
70457;SDS011;57919;56.194;95.716;2024-03-02T13:46:21;37.47;;;16.63;;
70457;SDS011;57919;56.194;95.716;2024-03-02T13:56:23;32.90;;;19.43;;
70457;SDS011;57919;56.194;95.716;2024-03-02T14:06:26;32.77;;;13.13;;
70457;SDS011;57919;56.194;95.716;2024-03-02T14:16:28;30.98;;;12.00;;
70457;SDS011;57919;56.194;95.716;2024-03-02T14:26:30;21.13;;;9.63;;
70457;SDS011;57919;56.194;95.716;2024-03-02T14:36:31;12.33;;;4.83;;
70457;SDS011;57919;56.194;95.716;2024-03-02T14:46:35;6.10;;;2.37;;
70457;SDS011;57919;56.194;95.716;2024-03-02T14:56:37;25.10;;;15.07;;
70457;SDS011;57919;56.194;95.716;2024-03-02T15:06:38;16.70;;;7.00;;
70457;SDS011;57919;56.194;95.716;2024-03-02T15:16:42;14.63;;;7.23;;
70457;SDS011;57919;56.194;95.716;2024-03-02T15:26:44;22.45;;;7.82;;
70457;SDS011;57919;56.194;95.716;2024-03-02T15:36:46;29.67;;;14.13;;
70457;SDS011;57919;56.194;95.716;2024-03-02T15:46:48;12.03;;;6.07;;
70457;SDS011;57919;56.194;95.716;2024-03-02T15:56:49;17.90;;;9.95;;
70457;SDS011;57919;56.194;95.716;2024-03-02T16:06:51;29.23;;;11.93;;
70457;SDS011;57919;56.194;95.716;2024-03-02T16:16:53;21.07;;;11.33;;
70457;SDS011;57919;56.194;95.716;2024-03-02T16:26:55;31.70;;;15.33;;
70457;SDS011;57919;56.194;95.716;2024-03-02T16:36:57;37.42;;;18.65;;
70457;SDS011;57919;56.194;95.716;2024-03-02T16:46:59;47.13;;;25.17;;
70457;SDS011;57919;56.194;95.716;2024-03-02T16:57:01;40.40;;;17.87;;
70457;SDS011;57919;56.194;95.716;2024-03-02T17:07:03;55.05;;;26.38;;
70457;SDS011;57919;56.194;95.716;2024-03-02T17:17:05;37.13;;;16.67;;
70457;SDS011;57919;56.194;95.716;2024-03-02T17:27:07;56.50;;;25.93;;
70457;SDS011;57919;56.194;95.716;2024-03-02T17:37:09;53.83;;;23.30;;
70457;SDS011;57919;56.194;95.716;2024-03-02T17:47:10;63.47;;;34.50;;
70457;SDS011;57919;56.194;95.716;2024-03-02T17:57:12;120.93;;;50.97;;
70457;SDS011;57919;56.194;95.716;2024-03-02T18:07:14;69.80;;;31.60;;
70457;SDS011;57919;56.194;95.716;2024-03-02T18:17:16;66.55;;;35.05;;
70457;SDS011;57919;56.194;95.716;2024-03-02T18:27:19;54.20;;;29.37;;
70457;SDS011;57919;56.194;95.716;2024-03-02T18:37:21;90.33;;;40.07;;
70457;SDS011;57919;56.194;95.716;2024-03-02T18:47:24;98.95;;;44.90;;
70457;SDS011;57919;56.194;95.716;2024-03-02T18:57:28;106.77;;;53.43;;
70457;SDS011;57919;56.194;95.716;2024-03-02T19:07:30;103.70;;;52.23;;
70457;SDS011;57919;56.194;95.716;2024-03-02T19:17:33;85.32;;;46.10;;
70457;SDS011;57919;56.194;95.716;2024-03-02T19:27:35;100.72;;;53.95;;
70457;SDS011;57919;56.194;95.716;2024-03-02T19:37:37;114.30;;;55.37;;
70457;SDS011;57919;56.194;95.716;2024-03-02T19:47:39;96.27;;;43.07;;
70457;SDS011;57919;56.194;95.716;2024-03-02T19:57:43;66.80;;;36.15;;
70457;SDS011;57919;56.194;95.716;2024-03-02T20:07:48;65.03;;;28.57;;
70457;SDS011;57919;56.194;95.716;2024-03-02T20:17:50;41.30;;;22.37;;
70457;SDS011;57919;56.194;95.716;2024-03-02T20:27:52;56.00;;;23.17;;
70457;SDS011;57919;56.194;95.716;2024-03-02T20:37:53;45.33;;;23.30;;
70457;SDS011;57919;56.194;95.716;2024-03-02T20:47:56;48.53;;;25.93;;
70457;SDS011;57919;56.194;95.716;2024-03-02T20:57:58;42.03;;;23.73;;
70457;SDS011;57919;56.194;95.716;2024-03-02T21:08:00;40.58;;;22.85;;
70457;SDS011;57919;56.194;95.716;2024-03-02T21:18:02;22.03;;;14.17;;
70457;SDS011;57919;56.194;95.716;2024-03-02T21:28:04;15.40;;;9.20;;
70457;SDS011;57919;56.194;95.716;2024-03-02T21:38:06;19.92;;;13.88;;
70457;SDS011;57919;56.194;95.716;2024-03-02T21:48:08;1.70;;;1.27;;
70457;SDS011;57919;56.194;95.716;2024-03-02T21:58:10;6.83;;;5.40;;
70457;SDS011;57919;56.194;95.716;2024-03-02T22:08:13;19.40;;;9.57;;
70457;SDS011;57919;56.194;95.716;2024-03-02T22:18:15;13.33;;;10.73;;
70457;SDS011;57919;56.194;95.716;2024-03-02T22:28:17;10.33;;;8.37;;
70457;SDS011;57919;56.194;95.716;2024-03-02T22:38:19;11.32;;;8.05;;
70457;SDS011;57919;56.194;95.716;2024-03-02T22:48:21;24.75;;;11.88;;
70457;SDS011;57919;56.194;95.716;2024-03-02T22:58:23;20.30;;;11.37;;
70457;SDS011;57919;56.194;95.716;2024-03-02T23:08:25;19.77;;;11.17;;
70457;SDS011;57919;56.194;95.716;2024-03-02T23:18:26;28.30;;;11.00;;
70457;SDS011;57919;56.194;95.716;2024-03-02T23:28:28;30.97;;;14.27;;
70457;SDS011;57919;56.194;95.716;2024-03-02T23:38:30;13.57;;;7.90;;
70457;SDS011;57919;56.194;95.716;2024-03-02T23:48:32;37.28;;;16.75;;
70457;SDS011;57919;56.194;95.716;2024-03-02T23:58:33;18.43;;;15.10;;
